Wetterdaten: Woche 20.07.09 - 26.07.09 (KW30)
Datum Zeit Temperatur Luftfeuchte Luftdruck Niederschlag Wind Richtung Sonnenschein Solar Taupunkt Windchill Windben
20.07.2009 00:00 14.4 C 81 % 1020.4 hPa 0.0 l/m 0.0 km/h (0 Bft) O-SO 0.00 h 0 W/m 11.1 C 14.4 C 0.7 km/h (0 Bft)
20.07.2009 01:00 14.1 C 83 % 1020.6 hPa 0.0 l/m 0.0 km/h (0 Bft) N 0.00 h 0 W/m 11.3 C 14.1 C 0.0 km/h (0 Bft)
20.07.2009 02:00 13.7 C 84 % 1020.5 hPa 0.0 l/m 0.0 km/h (0 Bft) N 0.00 h 0 W/m 11.1 C 13.7 C 0.1 km/h (0 Bft)
20.07.2009 03:00 13.3 C 86 % 1020.2 hPa 0.0 l/m 0.0 km/h (0 Bft) O-SO 0.00 h 0 W/m 10.9 C 13.3 C 0.2 km/h (0 Bft)
20.07.2009 04:00 12.8 C 88 % 1020.2 hPa 0.0 l/m 0.1 km/h (0 Bft) O-SO 0.00 h 0 W/m 10.8 C 12.8 C 0.1 km/h (0 Bft)
20.07.2009 05:00 12.5 C 90 % 1020.2 hPa 0.0 l/m 0.1 km/h (0 Bft) O-SO 0.00 h 5 W/m 10.9 C 12.5 C 0.3 km/h (0 Bft)
20.07.2009 06:00 12.2 C 92 % 1020.2 hPa 0.0 l/m 0.1 km/h (0 Bft) O-SO 0.00 h 25 W/m 10.9 C 12.2 C 0.6 km/h (0 Bft)
20.07.2009 07:00 12.7 C 94 % 1020.3 hPa 0.0 l/m 0.0 km/h (0 Bft) N 0.23 h 114 W/m 11.7 C 12.7 C 0.2 km/h (0 Bft)
20.07.2009 08:00 15.7 C 87 % 1020.0 hPa 0.0 l/m 0.2 km/h (0 Bft) O-SO 1.00 h 322 W/m 13.4 C 15.7 C 1.0 km/h (0 Bft)
20.07.2009 09:00 18.8 C 75 % 1019.7 hPa 0.0 l/m 0.5 km/h (0 Bft) NW 1.00 h 485 W/m 14.3 C 18.8 C 1.8 km/h (1 Bft)
20.07.2009 10:00 20.9 C 64 % 1019.6 hPa 0.0 l/m 6.3 km/h (2 Bft) W 1.00 h 645 W/m 13.8 C 20.9 C 10.7 km/h (2 Bft)
20.07.2009 11:00 21.6 C 59 % 1019.6 hPa 0.0 l/m 9.2 km/h (2 Bft) W 0.73 h 623 W/m 13.1 C 21.6 C 15.1 km/h (3 Bft)
20.07.2009 12:00 22.5 C 58 % 1019.4 hPa 0.0 l/m 7.4 km/h (2 Bft) W 0.82 h 774 W/m 13.8 C 22.5 C 12.5 km/h (3 Bft)
20.07.2009 13:00 23.0 C 56 % 1019.1 hPa 0.0 l/m 8.5 km/h (2 Bft) W 0.52 h 634 W/m 13.7 C 23.0 C 13.5 km/h (3 Bft)
20.07.2009 14:00 23.4 C 56 % 1019.0 hPa 0.0 l/m 6.4 km/h (2 Bft) W-SW 0.57 h 641 W/m 14.2 C 23.4 C 10.7 km/h (2 Bft)
20.07.2009 15:00 24.5 C 52 % 1018.5 hPa 0.0 l/m 7.7 km/h (2 Bft) W 0.80 h 697 W/m 14.0 C 24.5 C 12.8 km/h (3 Bft)
20.07.2009 16:00 25.2 C 50 % 1018.0 hPa 0.0 l/m 7.0 km/h (2 Bft) W 0.92 h 669 W/m 13.9 C 25.2 C 11.5 km/h (2 Bft)
20.07.2009 17:00 25.6 C 48 % 1017.5 hPa 0.0 l/m 7.0 km/h (2 Bft) W 1.00 h 534 W/m 13.7 C 25.6 C 11.1 km/h (2 Bft)
20.07.2009 18:00 25.7 C 48 % 1017.2 hPa 0.0 l/m 5.5 km/h (1 Bft) W 1.00 h 348 W/m 13.8 C 25.7 C 9.0 km/h (2 Bft)
20.07.2009 19:00 25.5 C 47 % 1016.9 hPa 0.0 l/m 5.6 km/h (1 Bft) W 1.00 h 187 W/m 13.3 C 25.5 C 9.2 km/h (2 Bft)
20.07.2009 20:00 24.3 C 51 % 1016.8 hPa 0.0 l/m 1.7 km/h (1 Bft) W-NW 0.43 h 53 W/m 13.6 C 24.3 C 3.1 km/h (1 Bft)
20.07.2009 21:00 21.2 C 66 % 1017.0 hPa 0.0 l/m 3.9 km/h (1 Bft) SO 0.02 h 8 W/m 14.5 C 21.2 C 5.5 km/h (1 Bft)
20.07.2009 22:00 18.3 C 77 % 1017.4 hPa 0.0 l/m 1.7 km/h (1 Bft) O-SO 0.00 h 0 W/m 14.2 C 18.3 C 2.9 km/h (1 Bft)
20.07.2009 23:00 16.7 C 83 % 1017.6 hPa 0.0 l/m 1.1 km/h (1 Bft) O-SO 0.00 h 0 W/m 13.7 C 16.7 C 2.2 km/h (1 Bft)
21.07.2009 00:00 15.7 C 86 % 1017.7 hPa 0.0 l/m 1.3 km/h (1 Bft) O-SO 0.00 h 0 W/m 13.3 C 15.7 C 2.1 km/h (1 Bft)
21.07.2009 01:00 14.9 C 89 % 1017.6 hPa 0.0 l/m 0.2 km/h (0 Bft) O-SO 0.00 h 0 W/m 13.1 C 14.9 C 0.9 km/h (0 Bft)
21.07.2009 02:00 14.3 C 91 % 1017.2 hPa 0.0 l/m 0.3 km/h (0 Bft) O-SO 0.00 h 0 W/m 12.8 C 14.3 C 1.2 km/h (1 Bft)
21.07.2009 03:00 13.8 C 93 % 1016.9 hPa 0.0 l/m 0.2 km/h (0 Bft) O-SO 0.00 h 0 W/m 12.6 C 13.8 C 0.7 km/h (0 Bft)
21.07.2009 04:00 13.4 C 94 % 1016.7 hPa 0.0 l/m 0.8 km/h (0 Bft) O-SO 0.00 h 0 W/m 12.4 C 13.4 C 1.7 km/h (1 Bft)
21.07.2009 05:00 13.2 C 95 % 1016.6 hPa 0.0 l/m 0.4 km/h (0 Bft) O-SO 0.00 h 6 W/m 12.4 C 13.2 C 1.0 km/h (0 Bft)
21.07.2009 06:00 13.1 C 96 % 1016.3 hPa 0.0 l/m 0.3 km/h (0 Bft) O-SO 0.03 h 22 W/m 12.5 C 13.1 C 0.9 km/h (0 Bft)
21.07.2009 07:00 13.8 C 97 % 1016.4 hPa 0.0 l/m 0.3 km/h (0 Bft) O-SO 0.52 h 138 W/m 13.3 C 13.8 C 0.7 km/h (0 Bft)
21.07.2009 08:00 16.8 C 91 % 1016.5 hPa 0.0 l/m 0.6 km/h (0 Bft) SO 0.90 h 305 W/m 15.3 C 16.8 C 1.8 km/h (1 Bft)
21.07.2009 09:00 19.8 C 77 % 1016.4 hPa 0.0 l/m 0.5 km/h (0 Bft) SO 1.00 h 458 W/m 15.8 C 19.8 C 1.9 km/h (1 Bft)
21.07.2009 10:00 21.9 C 71 % 1015.9 hPa 0.0 l/m 1.9 km/h (1 Bft) W-NW 1.00 h 612 W/m 16.5 C 21.9 C 3.7 km/h (1 Bft)
21.07.2009 11:00 24.0 C 65 % 1015.4 hPa 0.0 l/m 1.8 km/h (1 Bft) W-NW 1.00 h 721 W/m 17.0 C 24.0 C 3.9 km/h (1 Bft)
21.07.2009 12:00 25.9 C 56 % 1014.9 hPa 0.0 l/m 2.6 km/h (1 Bft) S-SO 0.93 h 789 W/m 16.5 C 25.9 C 5.6 km/h (1 Bft)
21.07.2009 13:00 27.4 C 54 % 1014.4 hPa 0.0 l/m 2.6 km/h (1 Bft) S-SO 0.90 h 764 W/m 17.3 C 27.4 C 5.7 km/h (1 Bft)
21.07.2009 14:00 28.7 C 51 % 1013.7 hPa 0.0 l/m 2.7 km/h (1 Bft) SO 1.00 h 801 W/m 17.5 C 28.7 C 5.5 km/h (1 Bft)
21.07.2009 15:00 30.3 C 44 % 1013.0 hPa 0.0 l/m 4.0 km/h (1 Bft) W 1.00 h 746 W/m 16.6 C 30.3 C 7.4 km/h (2 Bft)
21.07.2009 16:00 31.1 C 39 % 1012.4 hPa 0.0 l/m 5.0 km/h (1 Bft) W-SW 1.00 h 636 W/m 15.4 C 31.1 C 9.0 km/h (2 Bft)
21.07.2009 17:00 30.7 C 38 % 1012.4 hPa 0.0 l/m 6.0 km/h (2 Bft) SW 1.00 h 533 W/m 14.7 C 30.7 C 12.0 km/h (2 Bft)
21.07.2009 18:00 30.3 C 36 % 1012.1 hPa 0.0 l/m 4.6 km/h (1 Bft) SW 1.00 h 380 W/m 13.6 C 30.3 C 9.0 km/h (2 Bft)
21.07.2009 19:00 29.1 C 41 % 1011.6 hPa 0.0 l/m 1.5 km/h (1 Bft) W 0.83 h 176 W/m 14.5 C 29.1 C 4.2 km/h (1 Bft)
21.07.2009 20:00 27.6 C 48 % 1011.2 hPa 0.0 l/m 4.0 km/h (1 Bft) O-SO 0.13 h 47 W/m 15.3 C 27.6 C 5.6 km/h (1 Bft)
21.07.2009 21:00 24.0 C 63 % 1011.2 hPa 0.0 l/m 2.9 km/h (1 Bft) O-SO 0.00 h 7 W/m 16.6 C 24.0 C 4.1 km/h (1 Bft)
21.07.2009 22:00 21.5 C 71 % 1011.8 hPa 0.0 l/m 1.6 km/h (1 Bft) O-SO 0.00 h 0 W/m 15.9 C 21.5 C 2.8 km/h (1 Bft)
21.07.2009 23:00 20.0 C 75 % 1011.5 hPa 0.0 l/m 1.9 km/h (1 Bft) O-SO 0.00 h 0 W/m 15.5 C 20.0 C 3.3 km/h (1 Bft)
22.07.2009 00:00 18.7 C 80 % 1011.1 hPa 0.0 l/m 1.0 km/h (0 Bft) O-SO 0.00 h 0 W/m 15.2 C 18.7 C 1.9 km/h (1 Bft)
22.07.2009 01:00 17.8 C 85 % 1010.9 hPa 0.0 l/m 0.4 km/h (0 Bft) O-SO 0.00 h 0 W/m 15.2 C 17.8 C 1.0 km/h (0 Bft)
22.07.2009 02:00 17.1 C 87 % 1010.7 hPa 0.0 l/m 0.5 km/h (0 Bft) O-SO 0.00 h 0 W/m 14.8 C 17.1 C 1.2 km/h (1 Bft)
22.07.2009 03:00 16.4 C 90 % 1010.5 hPa 0.0 l/m 1.7 km/h (1 Bft) O-SO 0.00 h 0 W/m 14.8 C 16.4 C 2.8 km/h (1 Bft)
22.07.2009 04:00 16.0 C 92 % 1010.7 hPa 0.0 l/m 2.8 km/h (1 Bft) O-SO 0.00 h 0 W/m 14.8 C 16.0 C 4.5 km/h (1 Bft)
22.07.2009 05:00 16.1 C 93 % 1010.2 hPa 0.0 l/m 1.5 km/h (1 Bft) O-SO 0.00 h 5 W/m 15.0 C 16.1 C 2.7 km/h (1 Bft)
22.07.2009 06:00 16.5 C 93 % 1010.3 hPa 0.0 l/m 2.4 km/h (1 Bft) O-SO 0.17 h 16 W/m 15.5 C 16.5 C 4.3 km/h (1 Bft)
22.07.2009 07:00 17.0 C 92 % 1011.2 hPa 0.0 l/m 1.2 km/h (1 Bft) SO 0.00 h 68 W/m 15.7 C 17.0 C 2.7 km/h (1 Bft)
22.07.2009 08:00 18.0 C 91 % 1012.7 hPa 0.0 l/m 1.7 km/h (1 Bft) O-SO 0.00 h 74 W/m 16.6 C 18.0 C 3.2 km/h (1 Bft)
22.07.2009 09:00 19.5 C 79 % 1013.2 hPa 0.2 l/m 2.6 km/h (1 Bft) SO 0.00 h 145 W/m 15.7 C 19.5 C 4.6 km/h (1 Bft)
22.07.2009 10:00 20.1 C 75 % 1014.0 hPa 0.4 l/m 2.6 km/h (1 Bft) S-SO 0.00 h 82 W/m 15.4 C 20.1 C 5.4 km/h (1 Bft)
22.07.2009 11:00 19.2 C 85 % 1015.3 hPa 0.4 l/m 2.7 km/h (1 Bft) O-SO 0.00 h 187 W/m 16.7 C 19.2 C 4.7 km/h (1 Bft)
22.07.2009 12:00 19.8 C 89 % 1014.6 hPa 0.4 l/m 0.7 km/h (0 Bft) SO 0.08 h 278 W/m 17.9 C 19.8 C 2.4 km/h (1 Bft)
22.07.2009 13:00 21.4 C 85 % 1014.1 hPa 0.0 l/m 2.3 km/h (1 Bft) O-SO 0.28 h 338 W/m 18.8 C 21.4 C 4.6 km/h (1 Bft)
22.07.2009 14:00 23.2 C 70 % 1012.3 hPa 0.0 l/m 2.6 km/h (1 Bft) SO 0.25 h 454 W/m 17.4 C 23.2 C 5.3 km/h (1 Bft)
22.07.2009 15:00 25.1 C 62 % 1011.5 hPa 0.0 l/m 2.8 km/h (1 Bft) SO 0.45 h 477 W/m 17.4 C 25.1 C 5.7 km/h (1 Bft)
22.07.2009 16:00 25.3 C 59 % 1010.9 hPa 0.0 l/m 2.0 km/h (1 Bft) O-SO 0.17 h 301 W/m 16.5 C 25.3 C 4.0 km/h (1 Bft)
22.07.2009 17:00 25.0 C 64 % 1009.5 hPa 0.0 l/m 0.9 km/h (0 Bft) O-SO 0.18 h 259 W/m 17.6 C 25.0 C 2.7 km/h (1 Bft)
22.07.2009 18:00 24.6 C 70 % 1008.8 hPa 0.0 l/m 0.6 km/h (0 Bft) O-SO 0.05 h 167 W/m 18.6 C 24.6 C 2.0 km/h (1 Bft)
22.07.2009 19:00 24.4 C 70 % 1008.4 hPa 0.0 l/m 1.2 km/h (1 Bft) SO 0.18 h 105 W/m 18.5 C 24.4 C 2.7 km/h (1 Bft)
22.07.2009 20:00 23.6 C 74 % 1007.7 hPa 0.0 l/m 1.0 km/h (0 Bft) O-SO 0.00 h 29 W/m 18.6 C 23.6 C 2.2 km/h (1 Bft)
22.07.2009 21:00 22.1 C 79 % 1007.6 hPa 0.0 l/m 0.4 km/h (0 Bft) SO 0.00 h 6 W/m 18.2 C 22.1 C 0.8 km/h (0 Bft)
22.07.2009 22:00 20.7 C 85 % 1007.8 hPa 0.0 l/m 1.7 km/h (1 Bft) O-SO 0.00 h 0 W/m 18.1 C 20.7 C 3.2 km/h (1 Bft)
22.07.2009 23:00 20.1 C 88 % 1007.7 hPa 0.0 l/m 0.5 km/h (0 Bft) O-SO 0.00 h 0 W/m 18.0 C 20.1 C 2.0 km/h (1 Bft)
23.07.2009 00:00 19.5 C 90 % 1008.0 hPa 0.0 l/m 2.7 km/h (1 Bft) O-SO 0.00 h 0 W/m 17.8 C 19.5 C 4.2 km/h (1 Bft)
23.07.2009 01:00 19.1 C 91 % 1007.0 hPa 0.0 l/m 1.6 km/h (1 Bft) O-SO 0.00 h 0 W/m 17.6 C 19.1 C 3.3 km/h (1 Bft)
23.07.2009 02:00 18.8 C 92 % 1006.3 hPa 0.0 l/m 1.2 km/h (1 Bft) W-NW 0.00 h 0 W/m 17.4 C 18.8 C 2.9 km/h (1 Bft)
23.07.2009 03:00 18.6 C 93 % 1005.7 hPa 0.0 l/m 1.6 km/h (1 Bft) SO 0.00 h 0 W/m 17.5 C 18.6 C 3.1 km/h (1 Bft)
23.07.2009 04:00 18.5 C 93 % 1005.6 hPa 0.0 l/m 3.7 km/h (1 Bft) O-SO 0.00 h 0 W/m 17.4 C 18.5 C 6.3 km/h (2 Bft)
23.07.2009 05:00 18.2 C 92 % 1005.3 hPa 0.0 l/m 1.8 km/h (1 Bft) O 0.00 h 0 W/m 16.9 C 18.2 C 3.3 km/h (1 Bft)
23.07.2009 06:00 18.2 C 93 % 1005.1 hPa 0.0 l/m 3.3 km/h (1 Bft) SO 0.10 h 28 W/m 17.0 C 18.2 C 5.5 km/h (1 Bft)
23.07.2009 07:00 18.8 C 92 % 1004.0 hPa 0.0 l/m 1.8 km/h (1 Bft) NW 0.00 h 75 W/m 17.4 C 18.8 C 3.9 km/h (1 Bft)
23.07.2009 08:00 20.0 C 87 % 1004.4 hPa 0.0 l/m 3.7 km/h (1 Bft) W-NW 0.18 h 185 W/m 17.7 C 20.0 C 6.3 km/h (2 Bft)
23.07.2009 09:00 22.9 C 75 % 1005.0 hPa 0.0 l/m 1.6 km/h (1 Bft) N 0.87 h 404 W/m 18.1 C 22.9 C 3.5 km/h (1 Bft)
23.07.2009 10:00 24.5 C 67 % 1005.0 hPa 0.0 l/m 2.2 km/h (1 Bft) O-SO 0.32 h 355 W/m 18.0 C 24.5 C 4.0 km/h (1 Bft)
23.07.2009 11:00 25.8 C 63 % 1005.8 hPa 0.0 l/m 2.7 km/h (1 Bft) S-SO 0.37 h 460 W/m 18.1 C 25.8 C 5.7 km/h (1 Bft)
23.07.2009 12:00 27.4 C 59 % 1006.0 hPa 0.0 l/m 2.8 km/h (1 Bft) W 0.73 h 693 W/m 18.6 C 27.4 C 5.4 km/h (1 Bft)
23.07.2009 13:00 26.1 C 59 % 1007.1 hPa 0.0 l/m 12.2 km/h (2 Bft) W 0.28 h 392 W/m 17.3 C 26.1 C 18.8 km/h (3 Bft)
23.07.2009 14:00 24.6 C 63 % 1008.5 hPa 0.0 l/m 10.9 km/h (2 Bft) W-NW 0.58 h 617 W/m 17.0 C 24.6 C 17.1 km/h (3 Bft)
23.07.2009 15:00 24.1 C 63 % 1007.9 hPa 0.0 l/m 5.5 km/h (1 Bft) W 0.00 h 260 W/m 16.4 C 24.1 C 9.1 km/h (2 Bft)
23.07.2009 16:00 22.9 C 68 % 1008.2 hPa 0.4 l/m 3.3 km/h (1 Bft) W-NW 0.00 h 29 W/m 16.5 C 22.9 C 6.2 km/h (2 Bft)
23.07.2009 17:00 21.0 C 82 % 1008.9 hPa 1.2 l/m 1.9 km/h (1 Bft) SO 0.00 h 44 W/m 17.8 C 21.0 C 4.0 km/h (1 Bft)
23.07.2009 18:00 19.0 C 88 % 1010.7 hPa 0.0 l/m 3.2 km/h (1 Bft) S-SO 0.10 h 94 W/m 17.0 C 19.0 C 6.6 km/h (2 Bft)
23.07.2009 19:00 19.4 C 88 % 1011.3 hPa 0.2 l/m 2.0 km/h (1 Bft) S-SO 0.18 h 108 W/m 17.4 C 19.4 C 4.3 km/h (1 Bft)
23.07.2009 20:00 19.1 C 88 % 1012.2 hPa 0.0 l/m 3.3 km/h (1 Bft) S-SO 0.00 h 15 W/m 16.9 C 19.1 C 7.4 km/h (2 Bft)
23.07.2009 21:00 18.3 C 89 % 1013.1 hPa 0.6 l/m 6.3 km/h (2 Bft) W-SW 0.00 h 0 W/m 16.4 C 18.3 C 12.1 km/h (2 Bft)
23.07.2009 22:00 17.4 C 91 % 1014.0 hPa 0.0 l/m 2.9 km/h (1 Bft) S-SO 0.00 h 0 W/m 16.0 C 17.4 C 5.5 km/h (1 Bft)
23.07.2009 23:00 17.1 C 93 % 1014.1 hPa 0.0 l/m 1.0 km/h (0 Bft) SO 0.00 h 0 W/m 15.9 C 17.1 C 2.8 km/h (1 Bft)
24.07.2009 00:00 16.6 C 94 % 1014.8 hPa 0.0 l/m 1.6 km/h (1 Bft) SO 0.00 h 0 W/m 15.7 C 16.6 C 3.0 km/h (1 Bft)
24.07.2009 01:00 16.0 C 95 % 1015.3 hPa 0.0 l/m 0.5 km/h (0 Bft) S-SO 0.00 h 0 W/m 15.2 C 16.0 C 0.9 km/h (0 Bft)
24.07.2009 02:00 15.4 C 95 % 1015.5 hPa 0.0 l/m 0.4 km/h (0 Bft) S-SO 0.00 h 0 W/m 14.7 C 15.4 C 1.0 km/h (0 Bft)
24.07.2009 03:00 15.0 C 96 % 1015.6 hPa 0.0 l/m 0.2 km/h (0 Bft) S-SO 0.00 h 0 W/m 14.5 C 15.0 C 0.6 km/h (0 Bft)
24.07.2009 04:00 14.8 C 97 % 1015.8 hPa 0.2 l/m 1.8 km/h (1 Bft) S-SO 0.00 h 0 W/m 14.3 C 14.8 C 2.9 km/h (1 Bft)
24.07.2009 05:00 14.2 C 97 % 1016.1 hPa 0.0 l/m 1.0 km/h (0 Bft) O-SO 0.00 h 5 W/m 13.7 C 14.2 C 1.8 km/h (1 Bft)
24.07.2009 06:00 13.8 C 97 % 1016.5 hPa 0.0 l/m 0.4 km/h (0 Bft) O-SO 0.00 h 24 W/m 13.4 C 13.8 C 1.1 km/h (1 Bft)
24.07.2009 07:00 14.6 C 99 % 1016.4 hPa 0.0 l/m 0.0 km/h (0 Bft) O-SO 0.02 h 92 W/m 14.4 C 14.6 C 0.5 km/h (0 Bft)
24.07.2009 08:00 15.9 C 99 % 1016.4 hPa 0.0 l/m 0.8 km/h (0 Bft) O-SO 0.43 h 217 W/m 15.7 C 15.9 C 2.0 km/h (1 Bft)
24.07.2009 09:00 19.0 C 88 % 1016.1 hPa 0.0 l/m 2.5 km/h (1 Bft) O-SO 0.88 h 438 W/m 16.9 C 19.0 C 4.9 km/h (1 Bft)
24.07.2009 10:00 20.0 C 75 % 1016.1 hPa 0.0 l/m 7.4 km/h (2 Bft) W 0.70 h 517 W/m 15.4 C 20.0 C 12.5 km/h (3 Bft)
24.07.2009 11:00 22.4 C 68 % 1015.7 hPa 0.0 l/m 4.9 km/h (1 Bft) W 1.00 h 788 W/m 16.2 C 22.4 C 8.6 km/h (2 Bft)
24.07.2009 12:00 22.4 C 67 % 1015.5 hPa 0.0 l/m 4.6 km/h (1 Bft) W-NW 0.48 h 502 W/m 16.0 C 22.4 C 7.9 km/h (2 Bft)
24.07.2009 13:00 22.2 C 65 % 1015.3 hPa 0.0 l/m 7.8 km/h (2 Bft) W 0.53 h 515 W/m 15.4 C 22.2 C 12.7 km/h (3 Bft)
24.07.2009 14:00 22.6 C 65 % 1015.0 hPa 0.0 l/m 8.5 km/h (2 Bft) W 0.13 h 404 W/m 15.7 C 22.6 C 14.0 km/h (3 Bft)
24.07.2009 15:00 21.8 C 66 % 1015.2 hPa 0.0 l/m 10.4 km/h (2 Bft) W 0.00 h 208 W/m 15.0 C 21.8 C 16.0 km/h (3 Bft)
24.07.2009 16:00 20.9 C 67 % 1015.6 hPa 0.0 l/m 5.8 km/h (2 Bft) W 0.00 h 113 W/m 14.4 C 20.9 C 9.8 km/h (2 Bft)
24.07.2009 17:00 19.9 C 66 % 1015.7 hPa 0.2 l/m 14.0 km/h (3 Bft) W-NW 0.00 h 55 W/m 13.4 C 19.9 C 21.8 km/h (4 Bft)
24.07.2009 18:00 18.9 C 73 % 1015.3 hPa 0.0 l/m 9.2 km/h (2 Bft) W 0.00 h 50 W/m 13.9 C 18.9 C 14.5 km/h (3 Bft)
24.07.2009 19:00 18.5 C 79 % 1016.4 hPa 0.4 l/m 5.9 km/h (2 Bft) W 0.10 h 36 W/m 14.7 C 18.5 C 10.8 km/h (2 Bft)
24.07.2009 20:00 17.9 C 86 % 1016.9 hPa 0.0 l/m 3.0 km/h (1 Bft) S-SO 0.30 h 64 W/m 15.6 C 17.9 C 5.9 km/h (2 Bft)
24.07.2009 21:00 17.2 C 90 % 1018.1 hPa 6.8 l/m 7.7 km/h (2 Bft) W 0.00 h 0 W/m 15.5 C 17.2 C 12.9 km/h (3 Bft)
24.07.2009 22:00 15.0 C 92 % 1019.7 hPa 0.0 l/m 7.7 km/h (2 Bft) W 0.00 h 0 W/m 13.8 C 15.0 C 12.3 km/h (3 Bft)
24.07.2009 23:00 14.2 C 95 % 1020.4 hPa 0.0 l/m 4.8 km/h (1 Bft) W-NW 0.00 h 0 W/m 13.4 C 14.2 C 8.4 km/h (2 Bft)
25.07.2009 00:00 13.9 C 96 % 1021.1 hPa 0.0 l/m 1.5 km/h (1 Bft) W 0.00 h 0 W/m 13.3 C 13.9 C 3.9 km/h (1 Bft)
25.07.2009 01:00 13.6 C 96 % 1021.1 hPa 0.0 l/m 1.5 km/h (1 Bft) W-SW 0.00 h 0 W/m 13.0 C 13.6 C 3.8 km/h (1 Bft)
25.07.2009 02:00 13.3 C 97 % 1021.2 hPa 0.0 l/m 2.5 km/h (1 Bft) W-SW 0.00 h 0 W/m 12.9 C 13.3 C 5.1 km/h (1 Bft)
25.07.2009 03:00 13.0 C 97 % 1021.5 hPa 0.0 l/m 1.2 km/h (1 Bft) SW 0.00 h 0 W/m 12.5 C 13.0 C 3.2 km/h (1 Bft)
25.07.2009 04:00 13.1 C 97 % 1021.8 hPa 0.0 l/m 2.1 km/h (1 Bft) W-SW 0.00 h 0 W/m 12.6 C 13.1 C 4.8 km/h (1 Bft)
25.07.2009 05:00 13.0 C 96 % 1022.3 hPa 0.0 l/m 0.5 km/h (0 Bft) SO 0.00 h 0 W/m 12.4 C 13.0 C 1.7 km/h (1 Bft)
25.07.2009 06:00 13.0 C 95 % 1022.7 hPa 0.0 l/m 2.6 km/h (1 Bft) W 0.03 h 23 W/m 12.2 C 13.0 C 5.4 km/h (1 Bft)
25.07.2009 07:00 13.4 C 95 % 1023.2 hPa 0.0 l/m 7.2 km/h (2 Bft) W 0.05 h 72 W/m 12.6 C 13.4 C 11.9 km/h (2 Bft)
25.07.2009 08:00 14.7 C 91 % 1023.6 hPa 0.0 l/m 1.7 km/h (1 Bft) W 0.15 h 145 W/m 13.3 C 14.7 C 3.5 km/h (1 Bft)
25.07.2009 09:00 15.6 C 87 % 1024.1 hPa 0.0 l/m 3.8 km/h (1 Bft) W-NW 0.43 h 310 W/m 13.5 C 15.6 C 7.0 km/h (2 Bft)
25.07.2009 10:00 17.5 C 76 % 1024.1 hPa 0.0 l/m 9.1 km/h (2 Bft) W 0.65 h 505 W/m 13.3 C 17.5 C 14.2 km/h (3 Bft)
25.07.2009 11:00 17.5 C 73 % 1024.4 hPa 0.0 l/m 10.1 km/h (2 Bft) W 0.15 h 395 W/m 12.6 C 17.5 C 16.3 km/h (3 Bft)
25.07.2009 12:00 18.7 C 68 % 1024.6 hPa 0.0 l/m 9.1 km/h (2 Bft) W 0.33 h 479 W/m 12.7 C 18.7 C 14.6 km/h (3 Bft)
25.07.2009 13:00 19.3 C 66 % 1024.6 hPa 0.0 l/m 8.7 km/h (2 Bft) W 0.18 h 476 W/m 12.8 C 19.3 C 14.6 km/h (3 Bft)
25.07.2009 14:00 21.0 C 56 % 1024.0 hPa 0.0 l/m 13.0 km/h (3 Bft) W 0.92 h 821 W/m 11.8 C 21.0 C 20.7 km/h (4 Bft)
25.07.2009 15:00 22.1 C 49 % 1023.9 hPa 0.0 l/m 11.1 km/h (2 Bft) W 0.93 h 768 W/m 11.0 C 22.1 C 18.1 km/h (3 Bft)
25.07.2009 16:00 22.7 C 48 % 1023.8 hPa 0.0 l/m 11.0 km/h (2 Bft) W-NW 0.98 h 743 W/m 11.0 C 22.7 C 16.7 km/h (3 Bft)
25.07.2009 17:00 22.6 C 47 % 1023.6 hPa 0.0 l/m 10.4 km/h (2 Bft) W 0.83 h 527 W/m 10.6 C 22.6 C 16.3 km/h (3 Bft)
25.07.2009 18:00 22.3 C 46 % 1023.5 hPa 0.0 l/m 11.7 km/h (2 Bft) W 1.00 h 359 W/m 10.2 C 22.3 C 18.4 km/h (3 Bft)
25.07.2009 19:00 22.2 C 48 % 1023.5 hPa 0.0 l/m 9.3 km/h (2 Bft) W 0.97 h 184 W/m 10.7 C 22.2 C 14.6 km/h (3 Bft)
25.07.2009 20:00 20.9 C 53 % 1023.6 hPa 0.0 l/m 4.1 km/h (1 Bft) W-NW 0.50 h 48 W/m 10.9 C 20.9 C 6.8 km/h (2 Bft)
25.07.2009 21:00 18.5 C 65 % 1023.9 hPa 0.0 l/m 1.0 km/h (0 Bft) W-NW 0.00 h 7 W/m 11.7 C 18.5 C 1.7 km/h (1 Bft)
25.07.2009 22:00 16.0 C 75 % 1024.6 hPa 0.0 l/m 2.2 km/h (1 Bft) O 0.00 h 0 W/m 11.5 C 16.0 C 3.9 km/h (1 Bft)
25.07.2009 23:00 14.3 C 82 % 1025.0 hPa 0.0 l/m 2.2 km/h (1 Bft) O-SO 0.00 h 0 W/m 11.3 C 14.3 C 3.4 km/h (1 Bft)
26.07.2009 00:00 13.2 C 87 % 1025.2 hPa 0.0 l/m 1.3 km/h (1 Bft) O-SO 0.00 h 0 W/m 11.0 C 13.2 C 2.5 km/h (1 Bft)
26.07.2009 01:00 12.4 C 90 % 1025.0 hPa 0.0 l/m 0.8 km/h (0 Bft) O-SO 0.00 h 0 W/m 10.8 C 12.4 C 1.6 km/h (1 Bft)
26.07.2009 02:00 11.8 C 91 % 1024.6 hPa 0.0 l/m 0.0 km/h (0 Bft) O-SO 0.00 h 0 W/m 10.4 C 11.8 C 0.4 km/h (0 Bft)
26.07.2009 03:00 11.3 C 93 % 1024.0 hPa 0.0 l/m 0.1 km/h (0 Bft) O-SO 0.00 h 0 W/m 10.2 C 11.3 C 0.4 km/h (0 Bft)
26.07.2009 04:00 10.9 C 94 % 1023.9 hPa 0.0 l/m 0.2 km/h (0 Bft) O-SO 0.00 h 0 W/m 9.9 C 10.9 C 0.6 km/h (0 Bft)
26.07.2009 05:00 10.4 C 94 % 1023.7 hPa 0.0 l/m 0.1 km/h (0 Bft) O-SO 0.00 h 5 W/m 9.6 C 10.4 C 0.5 km/h (0 Bft)
26.07.2009 06:00 10.0 C 95 % 1023.6 hPa 0.2 l/m 0.0 km/h (0 Bft) N 0.03 h 17 W/m 9.2 C 10.0 C 0.0 km/h (0 Bft)
26.07.2009 07:00 10.5 C 96 % 1023.5 hPa 0.0 l/m 0.1 km/h (0 Bft) O-SO 0.58 h 123 W/m 9.9 C 10.5 C 0.3 km/h (0 Bft)
26.07.2009 08:00 14.1 C 91 % 1023.1 hPa 0.0 l/m 0.8 km/h (0 Bft) O-NO 1.00 h 313 W/m 12.6 C 14.1 C 2.5 km/h (1 Bft)
26.07.2009 09:00 17.3 C 75 % 1022.8 hPa 0.0 l/m 0.8 km/h (0 Bft) N 1.00 h 477 W/m 12.8 C 17.3 C 2.4 km/h (1 Bft)
26.07.2009 10:00 19.5 C 66 % 1022.3 hPa 0.0 l/m 2.3 km/h (1 Bft) O-SO 1.00 h 624 W/m 12.9 C 19.5 C 5.0 km/h (1 Bft)
26.07.2009 11:00 21.1 C 60 % 1021.8 hPa 0.0 l/m 3.8 km/h (1 Bft) O-SO 1.00 h 738 W/m 13.0 C 21.1 C 7.2 km/h (2 Bft)
26.07.2009 12:00 22.2 C 57 % 1021.4 hPa 0.0 l/m 3.6 km/h (1 Bft) O-SO 1.00 h 813 W/m 13.2 C 22.2 C 6.6 km/h (2 Bft)
26.07.2009 13:00 23.0 C 52 % 1020.8 hPa 0.0 l/m 3.7 km/h (1 Bft) SO 1.00 h 844 W/m 12.6 C 23.0 C 6.8 km/h (2 Bft)
26.07.2009 14:00 23.7 C 48 % 1020.2 hPa 0.0 l/m 3.7 km/h (1 Bft) O-SO 1.00 h 827 W/m 12.1 C 23.7 C 6.8 km/h (2 Bft)
26.07.2009 15:00 24.7 C 44 % 1019.9 hPa 0.0 l/m 3.4 km/h (1 Bft) SO 1.00 h 762 W/m 11.6 C 24.7 C 6.2 km/h (2 Bft)
26.07.2009 16:00 25.0 C 40 % 1019.5 hPa 0.0 l/m 1.9 km/h (1 Bft) O-SO 1.00 h 648 W/m 10.4 C 25.0 C 4.1 km/h (1 Bft)
26.07.2009 17:00 24.9 C 40 % 1019.1 hPa 0.0 l/m 2.1 km/h (1 Bft) O-SO 1.00 h 497 W/m 10.3 C 24.9 C 4.6 km/h (1 Bft)
26.07.2009 18:00 24.4 C 42 % 1018.7 hPa 0.0 l/m 2.7 km/h (1 Bft) O-SO 1.00 h 340 W/m 10.6 C 24.4 C 4.7 km/h (1 Bft)
26.07.2009 19:00 24.0 C 43 % 1018.1 hPa 0.0 l/m 1.6 km/h (1 Bft) O-NO 0.75 h 179 W/m 10.6 C 24.0 C 3.5 km/h (1 Bft)
26.07.2009 20:00 21.8 C 55 % 1017.8 hPa 0.0 l/m 3.9 km/h (1 Bft) O-SO 0.18 h 34 W/m 12.3 C 21.8 C 5.4 km/h (1 Bft)
26.07.2009 21:00 19.3 C 68 % 1017.7 hPa 0.0 l/m 3.1 km/h (1 Bft) O-SO 0.00 h 9 W/m 13.1 C 19.3 C 4.5 km/h (1 Bft)
26.07.2009 22:00 17.3 C 73 % 1017.8 hPa 0.0 l/m 0.8 km/h (0 Bft) O-SO 0.00 h 0 W/m 12.3 C 17.3 C 1.6 km/h (1 Bft)
26.07.2009 23:00 15.9 C 78 % 1017.6 hPa 0.0 l/m 1.0 km/h (0 Bft) O-SO 0.00 h 0 W/m 12.0 C 15.9 C 2.1 km/h (1 Bft)
Min-Datum _ 26.07.09 21.07.09 23.07.09 - 20.07.09 - - - 26.07.09 26.07.09 20.07.09
_ Min-Zeit 07:00 18:18 07:30 - 00:00 - - - 16:33 06:23 00:00
Minimum _ 9.8 C 29 % 1003.2 hPa - 0.0 km/h (0 Bft) - - - 7.5 C 9.9 C 0.0 km/h (0 Bft)
Max-Datum _ 21.07.09 24.07.09 25.07.09 24.07.09 23.07.09 - 20.07.09 25.07.09 23.07.09 21.07.09 23.07.09
_ Max-Zeit 16:15 07:29 23:30 21:40 13:57 - 07:07 12:39 12:45 16:15 13:57
Maximum _ 31.3 C 99 % 1025.2 hPa 6.8 l/m 27.8 km/h
W (4 Bft)
- 0.02 h 1199 W/m 20.3 C 31.3 C 38.2 km/h
W (5 Bft)
Durchschnitt _ 19.3 C 76 % 1016.2 hPa #11.6 l/m 3.2 km/h (1 Bft) W #54:04 h 329 W/m 14.3 C 19.3 C 5.7 km/h (1 Bft)
© Kaiko 2009